Terminal Aerodrome Forecast
Issued by NWS

Home | Current Version | Previous Version | Text Only | Print | Product List | Glossary On
Versions: 1 2 3 4 5 6 7 8 9 10 11 12 13 14 15 16 17
000
FTUS43 KFGF 222333
TAFTVF
TAF
KTVF 222333Z 2300/2324 09006KT P6SM BKN025
     FM230200 05011KT P6SM VCTS BKN030CB
     FM230300 02013KT P6SM VCSH BKN030
     FM230500 33016G24KT P6SM VCSH BKN030
     FM230900 32012KT P6SM BKN020
     FM231000 32010KT P6SM OVC015
     FM231800 33008KT P6SM BKN020
     FM232200 36008KT P6SM OVC030=

USA.gov is the U.S. government's official web portal to all federal, state and local government web resources and services.